Penfield, NY (14526)

5:48 PM EDT on August 22, 2014 (GMT -0400)
Country Club East | Change Station
CLOSE
Current Station
Personal Weather Station
Location: New York, NY
Elevation: 512 ft
Nearby Weather Stations

Elev 512 ft 43.15 °N, 77.44 °W | Updated 1 minute ago

Scattered Clouds
Scattered Clouds
74.0 °F
Feels Like 75 °F
N
4.0
Wind Variable Wind from ENE
Gusts 13.0 mph

Today
High -- | Low -- °F
--% Chance of Precip.
Yesterday
High -- | Low -- °F
Precip. -- in
6:23 AM 8:01 PM
Waning Crescent, 6% visible
Pressure 29.98 in
Visibility 10.0 miles
Clouds Few 3000 ft
Scattered Clouds 7000 ft
Heat Index 75 °F
Dew Point 66 °F
Humidity 77%
Rainfall 0.00 in
Snow Depth Not available.
UV 3 out of 12
Pollen 9.00 out of 12
Air Quality Not available.
Flu Activity Not available.
METAR KROC 222054Z 04009KT 10SM FEW030 SCT070 24/19 A2998 RMK AO2 SLP152 TCU DSNT E-SE T02440194 55001

More Conditions Fewer Conditions

Pressure 29.98 in
Visibility 10.0 miles
Clouds Few 3000 ft
Scattered Clouds 7000 ft
Heat Index 75 °F
Dew Point 66 °F
Humidity 77%
Rainfall 0.00 in
Snow Depth Not available.
UV 3 out of 12
Pollen 9.00 out of 12
Air Quality Not available.
Flu Activity Not available.
METAR KROC 222054Z 04009KT 10SM FEW030 SCT070 24/19 A2998 RMK AO2 SLP152 TCU DSNT E-SE T02440194 55001

More Conditions Fewer Conditions

10-Day Weather Forecast

Almanac

Astronomy

Aug. 22, 2014 Rise Set
Actual Time 6:23 AM EDT 8:01 PM EDT
Civil Twilight 5:53 AM EDT 8:31 PM EDT
Nautical Twilight 5:16 AM EDT 9:07 PM EDT
Astronomical Twilight 4:37 AM EDT 9:46 PM EDT
Moon 3:41 AM EDT 6:10 PM EDT
Length of Visible Light 14h 38m
Length of Day
13h 38m
Tomorrow will be 2m 43s shorter.
Waning Crescent, 6% of the Moon is Illuminated
Today
Waning Crescent
Aug 25
New
Sep 2
First Quarter
Sep 8
Full
Sep 15
Last Quarter

Today's Extremes

State Highs State Lows

Community

WunderPhotos

Upload Photos

1,746,260 photos uploaded!

Nearby

Air Quality

  Air Quality AQ Index Pollutant
Friday Good
PM2.5
Friday Good
OZONE
Saturday Good
OZONE
Saturday Good
PM2.5
Sunday Good
PM2.5
Sunday Good
OZONE
Monday Good
PM2.5
Monday Good
OZONE

Snow Depth

Station Depth Elevation
No new snow has been reported.

Earthquake Activity

City Distance Mag. Time & Date
No recent earthquake activity has been reported nearby.
Minimum magnitude displayed is 2.5.

Coastal Water Temperatures

Place Temperature
Buffalo, NY 73.0 °F
Alexandria Bay, NY 69.1 °F

Nearby Weather Stations